sensor_id;sensor_type;location;lat;lon;timestamp;temperature;humidity
81524;DHT22;70954;49.500;10.416;2024-02-26T00:01:39;6.80;58.10
81524;DHT22;70954;49.500;10.416;2024-02-26T00:04:04;6.80;58.10
81524;DHT22;70954;49.500;10.416;2024-02-26T00:06:30;6.80;58.20
81524;DHT22;70954;49.500;10.416;2024-02-26T00:08:56;6.80;58.20
81524;DHT22;70954;49.500;10.416;2024-02-26T00:11:21;6.80;58.20
81524;DHT22;70954;49.500;10.416;2024-02-26T00:13:47;6.80;58.30
81524;DHT22;70954;49.500;10.416;2024-02-26T00:16:12;6.80;58.40
81524;DHT22;70954;49.500;10.416;2024-02-26T00:18:38;6.80;58.40
81524;DHT22;70954;49.500;10.416;2024-02-26T00:21:03;6.90;58.40
81524;DHT22;70954;49.500;10.416;2024-02-26T00:23:29;6.90;58.40
81524;DHT22;70954;49.500;10.416;2024-02-26T00:25:54;6.90;58.40
81524;DHT22;70954;49.500;10.416;2024-02-26T00:28:21;6.90;58.50
81524;DHT22;70954;49.500;10.416;2024-02-26T00:30:46;6.90;58.40
81524;DHT22;70954;49.500;10.416;2024-02-26T00:33:12;6.90;58.50
81524;DHT22;70954;49.500;10.416;2024-02-26T00:35:38;6.90;58.40
81524;DHT22;70954;49.500;10.416;2024-02-26T00:38:03;6.90;58.40
81524;DHT22;70954;49.500;10.416;2024-02-26T00:40:29;6.90;58.40
81524;DHT22;70954;49.500;10.416;2024-02-26T00:42:55;7.00;58.40
81524;DHT22;70954;49.500;10.416;2024-02-26T00:45:20;7.00;58.50
81524;DHT22;70954;49.500;10.416;2024-02-26T00:47:46;7.00;58.50
81524;DHT22;70954;49.500;10.416;2024-02-26T00:50:11;7.00;58.50
81524;DHT22;70954;49.500;10.416;2024-02-26T00:52:37;7.00;58.50
81524;DHT22;70954;49.500;10.416;2024-02-26T00:55:02;7.00;58.50
81524;DHT22;70954;49.500;10.416;2024-02-26T00:57:28;7.00;58.50
81524;DHT22;70954;49.500;10.416;2024-02-26T00:59:53;7.00;58.50
81524;DHT22;70954;49.500;10.416;2024-02-26T01:02:19;7.00;58.50
81524;DHT22;70954;49.500;10.416;2024-02-26T01:04:44;7.00;58.50
81524;DHT22;70954;49.500;10.416;2024-02-26T01:07:10;7.00;58.40
81524;DHT22;70954;49.500;10.416;2024-02-26T01:09:35;7.00;58.40
81524;DHT22;70954;49.500;10.416;2024-02-26T01:12:01;7.00;58.40
81524;DHT22;70954;49.500;10.416;2024-02-26T01:14:26;7.00;58.40
81524;DHT22;70954;49.500;10.416;2024-02-26T01:16:51;7.00;58.40
81524;DHT22;70954;49.500;10.416;2024-02-26T01:19:17;7.00;58.30
81524;DHT22;70954;49.500;10.416;2024-02-26T01:21:42;7.00;58.40
81524;DHT22;70954;49.500;10.416;2024-02-26T01:24:08;7.00;58.40
81524;DHT22;70954;49.500;10.416;2024-02-26T01:26:33;7.00;58.50
81524;DHT22;70954;49.500;10.416;2024-02-26T01:28:59;7.00;58.50
81524;DHT22;70954;49.500;10.416;2024-02-26T01:31:24;7.00;58.50
81524;DHT22;70954;49.500;10.416;2024-02-26T01:33:49;7.00;58.60
81524;DHT22;70954;49.500;10.416;2024-02-26T01:36:15;7.00;58.60
81524;DHT22;70954;49.500;10.416;2024-02-26T01:38:40;7.10;58.60
81524;DHT22;70954;49.500;10.416;2024-02-26T01:41:06;7.00;58.80
81524;DHT22;70954;49.500;10.416;2024-02-26T01:43:31;7.10;58.70
81524;DHT22;70954;49.500;10.416;2024-02-26T01:45:57;7.10;58.70
81524;DHT22;70954;49.500;10.416;2024-02-26T01:48:23;7.10;58.70
81524;DHT22;70954;49.500;10.416;2024-02-26T01:50:49;7.20;58.80
81524;DHT22;70954;49.500;10.416;2024-02-26T01:53:16;7.20;58.70
81524;DHT22;70954;49.500;10.416;2024-02-26T01:55:42;7.20;58.70
81524;DHT22;70954;49.500;10.416;2024-02-26T01:58:07;7.20;58.80
81524;DHT22;70954;49.500;10.416;2024-02-26T02:00:34;7.20;58.70
81524;DHT22;70954;49.500;10.416;2024-02-26T02:03:01;7.20;58.70
81524;DHT22;70954;49.500;10.416;2024-02-26T02:05:27;7.20;58.70
81524;DHT22;70954;49.500;10.416;2024-02-26T02:07:53;7.20;58.70
81524;DHT22;70954;49.500;10.416;2024-02-26T02:10:19;7.20;58.70
81524;DHT22;70954;49.500;10.416;2024-02-26T02:12:45;7.20;58.70
81524;DHT22;70954;49.500;10.416;2024-02-26T02:15:11;7.20;58.70
81524;DHT22;70954;49.500;10.416;2024-02-26T02:17:36;7.30;58.70
81524;DHT22;70954;49.500;10.416;2024-02-26T02:20:02;7.30;58.70
81524;DHT22;70954;49.500;10.416;2024-02-26T02:22:27;7.40;58.60
81524;DHT22;70954;49.500;10.416;2024-02-26T02:24:53;7.40;58.60
81524;DHT22;70954;49.500;10.416;2024-02-26T02:27:19;7.40;58.70
81524;DHT22;70954;49.500;10.416;2024-02-26T02:29:45;7.30;58.60
81524;DHT22;70954;49.500;10.416;2024-02-26T02:32:11;7.40;58.60
81524;DHT22;70954;49.500;10.416;2024-02-26T02:34:37;7.40;58.60
81524;DHT22;70954;49.500;10.416;2024-02-26T02:37:03;7.40;58.70
81524;DHT22;70954;49.500;10.416;2024-02-26T02:39:28;7.40;58.70
81524;DHT22;70954;49.500;10.416;2024-02-26T02:41:53;7.40;58.60
81524;DHT22;70954;49.500;10.416;2024-02-26T02:44:19;7.40;58.60
81524;DHT22;70954;49.500;10.416;2024-02-26T02:46:44;7.40;58.60
81524;DHT22;70954;49.500;10.416;2024-02-26T02:49:10;7.40;58.60
81524;DHT22;70954;49.500;10.416;2024-02-26T02:51:36;7.50;58.60
81524;DHT22;70954;49.500;10.416;2024-02-26T02:54:02;7.50;58.60
81524;DHT22;70954;49.500;10.416;2024-02-26T02:56:27;7.50;58.60
81524;DHT22;70954;49.500;10.416;2024-02-26T02:58:53;7.50;58.60
81524;DHT22;70954;49.500;10.416;2024-02-26T03:01:18;7.50;58.60
81524;DHT22;70954;49.500;10.416;2024-02-26T03:03:43;7.50;58.60
81524;DHT22;70954;49.500;10.416;2024-02-26T03:06:09;7.50;58.60
81524;DHT22;70954;49.500;10.416;2024-02-26T03:08:34;7.50;58.50
81524;DHT22;70954;49.500;10.416;2024-02-26T03:11:00;7.50;58.40
81524;DHT22;70954;49.500;10.416;2024-02-26T03:13:25;7.50;58.50
81524;DHT22;70954;49.500;10.416;2024-02-26T03:15:50;7.50;58.50
81524;DHT22;70954;49.500;10.416;2024-02-26T03:18:16;7.50;58.50
81524;DHT22;70954;49.500;10.416;2024-02-26T03:20:41;7.60;58.50
81524;DHT22;70954;49.500;10.416;2024-02-26T03:23:07;7.60;58.50
81524;DHT22;70954;49.500;10.416;2024-02-26T03:25:32;7.60;58.40
81524;DHT22;70954;49.500;10.416;2024-02-26T03:27:58;7.60;58.40
81524;DHT22;70954;49.500;10.416;2024-02-26T03:30:23;7.60;58.40
81524;DHT22;70954;49.500;10.416;2024-02-26T03:32:48;7.60;58.40
81524;DHT22;70954;49.500;10.416;2024-02-26T03:35:14;7.60;58.40
81524;DHT22;70954;49.500;10.416;2024-02-26T03:37:39;7.60;58.40
81524;DHT22;70954;49.500;10.416;2024-02-26T03:40:05;7.60;58.40
81524;DHT22;70954;49.500;10.416;2024-02-26T03:42:31;7.60;58.30
81524;DHT22;70954;49.500;10.416;2024-02-26T03:44:56;7.60;58.30
81524;DHT22;70954;49.500;10.416;2024-02-26T03:47:22;7.60;58.30
81524;DHT22;70954;49.500;10.416;2024-02-26T03:49:47;7.60;58.30
81524;DHT22;70954;49.500;10.416;2024-02-26T03:52:13;7.60;58.30
81524;DHT22;70954;49.500;10.416;2024-02-26T03:54:38;7.60;58.40
81524;DHT22;70954;49.500;10.416;2024-02-26T03:57:04;7.60;58.40
81524;DHT22;70954;49.500;10.416;2024-02-26T03:59:29;7.70;58.40
81524;DHT22;70954;49.500;10.416;2024-02-26T04:01:55;7.70;58.40
81524;DHT22;70954;49.500;10.416;2024-02-26T04:04:20;7.70;58.30
81524;DHT22;70954;49.500;10.416;2024-02-26T04:06:46;7.70;58.30
81524;DHT22;70954;49.500;10.416;2024-02-26T04:09:14;7.70;58.30
81524;DHT22;70954;49.500;10.416;2024-02-26T04:11:39;7.70;58.40
81524;DHT22;70954;49.500;10.416;2024-02-26T04:14:05;7.70;58.30
81524;DHT22;70954;49.500;10.416;2024-02-26T04:16:30;7.70;58.30
81524;DHT22;70954;49.500;10.416;2024-02-26T04:18:56;7.70;58.30
81524;DHT22;70954;49.500;10.416;2024-02-26T04:21:21;7.70;58.40
81524;DHT22;70954;49.500;10.416;2024-02-26T04:23:46;7.60;58.30
81524;DHT22;70954;49.500;10.416;2024-02-26T04:26:12;7.70;58.30
81524;DHT22;70954;49.500;10.416;2024-02-26T04:28:37;7.60;58.40
81524;DHT22;70954;49.500;10.416;2024-02-26T04:31:03;7.60;58.40
81524;DHT22;70954;49.500;10.416;2024-02-26T04:33:28;7.60;58.40
81524;DHT22;70954;49.500;10.416;2024-02-26T04:35:54;7.60;58.40
81524;DHT22;70954;49.500;10.416;2024-02-26T04:38:19;7.60;58.40
81524;DHT22;70954;49.500;10.416;2024-02-26T04:40:44;7.60;58.40
81524;DHT22;70954;49.500;10.416;2024-02-26T04:43:10;7.60;58.40
81524;DHT22;70954;49.500;10.416;2024-02-26T04:45:35;7.60;58.30
81524;DHT22;70954;49.500;10.416;2024-02-26T04:48:02;7.60;58.30
81524;DHT22;70954;49.500;10.416;2024-02-26T04:50:27;7.60;58.40
81524;DHT22;70954;49.500;10.416;2024-02-26T04:52:53;7.60;58.40
81524;DHT22;70954;49.500;10.416;2024-02-26T04:55:18;7.50;58.50
81524;DHT22;70954;49.500;10.416;2024-02-26T04:57:43;7.60;58.60
81524;DHT22;70954;49.500;10.416;2024-02-26T05:00:09;7.50;58.60
81524;DHT22;70954;49.500;10.416;2024-02-26T05:02:35;7.50;58.60
81524;DHT22;70954;49.500;10.416;2024-02-26T05:05:01;7.50;58.60
81524;DHT22;70954;49.500;10.416;2024-02-26T05:07:26;7.50;58.70
81524;DHT22;70954;49.500;10.416;2024-02-26T05:09:51;7.50;58.70
81524;DHT22;70954;49.500;10.416;2024-02-26T05:12:17;7.50;58.80
81524;DHT22;70954;49.500;10.416;2024-02-26T05:14:42;7.50;59.00
81524;DHT22;70954;49.500;10.416;2024-02-26T05:17:08;7.50;59.00
81524;DHT22;70954;49.500;10.416;2024-02-26T05:19:33;7.40;59.00
81524;DHT22;70954;49.500;10.416;2024-02-26T05:21:59;7.50;59.00
81524;DHT22;70954;49.500;10.416;2024-02-26T05:24:24;7.40;59.10
81524;DHT22;70954;49.500;10.416;2024-02-26T05:26:49;7.40;59.20
81524;DHT22;70954;49.500;10.416;2024-02-26T05:29:15;7.40;59.10
81524;DHT22;70954;49.500;10.416;2024-02-26T05:31:43;7.40;59.20
81524;DHT22;70954;49.500;10.416;2024-02-26T05:34:09;7.40;59.10
81524;DHT22;70954;49.500;10.416;2024-02-26T05:36:34;7.40;59.20
81524;DHT22;70954;49.500;10.416;2024-02-26T05:39:00;7.40;59.30
81524;DHT22;70954;49.500;10.416;2024-02-26T05:41:26;7.40;59.30
81524;DHT22;70954;49.500;10.416;2024-02-26T05:43:55;7.40;59.40
81524;DHT22;70954;49.500;10.416;2024-02-26T05:46:21;7.40;59.30
81524;DHT22;70954;49.500;10.416;2024-02-26T05:48:48;7.40;59.40
81524;DHT22;70954;49.500;10.416;2024-02-26T05:51:13;7.40;59.40
81524;DHT22;70954;49.500;10.416;2024-02-26T05:53:39;7.40;59.40
81524;DHT22;70954;49.500;10.416;2024-02-26T05:56:06;7.40;59.40
81524;DHT22;70954;49.500;10.416;2024-02-26T05:58:31;7.40;59.50
81524;DHT22;70954;49.500;10.416;2024-02-26T06:00:57;7.40;59.40
81524;DHT22;70954;49.500;10.416;2024-02-26T06:03:22;7.40;59.40
81524;DHT22;70954;49.500;10.416;2024-02-26T06:05:47;7.40;59.40
81524;DHT22;70954;49.500;10.416;2024-02-26T06:08:13;7.40;59.40
81524;DHT22;70954;49.500;10.416;2024-02-26T06:10:39;7.40;59.50
81524;DHT22;70954;49.500;10.416;2024-02-26T06:13:05;7.40;59.50
81524;DHT22;70954;49.500;10.416;2024-02-26T06:15:30;7.40;59.60
81524;DHT22;70954;49.500;10.416;2024-02-26T06:17:55;7.50;59.60
81524;DHT22;70954;49.500;10.416;2024-02-26T06:20:21;7.50;59.70
81524;DHT22;70954;49.500;10.416;2024-02-26T06:22:46;7.50;59.60
81524;DHT22;70954;49.500;10.416;2024-02-26T06:25:12;7.50;59.60
81524;DHT22;70954;49.500;10.416;2024-02-26T06:27:37;7.50;59.60
81524;DHT22;70954;49.500;10.416;2024-02-26T06:30:03;7.50;59.60
81524;DHT22;70954;49.500;10.416;2024-02-26T06:32:29;7.50;59.70
81524;DHT22;70954;49.500;10.416;2024-02-26T06:34:55;7.50;59.60
81524;DHT22;70954;49.500;10.416;2024-02-26T06:37:20;7.50;59.70
81524;DHT22;70954;49.500;10.416;2024-02-26T06:39:46;7.50;59.60
81524;DHT22;70954;49.500;10.416;2024-02-26T06:42:11;7.60;59.70
81524;DHT22;70954;49.500;10.416;2024-02-26T06:44:37;7.60;59.70
81524;DHT22;70954;49.500;10.416;2024-02-26T06:47:02;7.60;59.70
81524;DHT22;70954;49.500;10.416;2024-02-26T06:49:28;7.60;59.70
81524;DHT22;70954;49.500;10.416;2024-02-26T06:51:53;7.60;59.70
81524;DHT22;70954;49.500;10.416;2024-02-26T06:54:19;7.60;59.80
81524;DHT22;70954;49.500;10.416;2024-02-26T06:56:44;7.60;59.80
81524;DHT22;70954;49.500;10.416;2024-02-26T06:59:10;7.70;59.70
81524;DHT22;70954;49.500;10.416;2024-02-26T07:01:35;7.70;59.90
81524;DHT22;70954;49.500;10.416;2024-02-26T07:04:01;7.70;59.80
81524;DHT22;70954;49.500;10.416;2024-02-26T07:06:27;7.80;59.80
81524;DHT22;70954;49.500;10.416;2024-02-26T07:08:53;7.80;59.90
81524;DHT22;70954;49.500;10.416;2024-02-26T07:11:18;7.80;59.90
81524;DHT22;70954;49.500;10.416;2024-02-26T07:13:43;7.80;60.00
81524;DHT22;70954;49.500;10.416;2024-02-26T07:16:09;7.80;60.00
81524;DHT22;70954;49.500;10.416;2024-02-26T07:18:35;7.90;60.10
81524;DHT22;70954;49.500;10.416;2024-02-26T07:21:02;7.90;60.10
81524;DHT22;70954;49.500;10.416;2024-02-26T07:23:28;8.00;60.00
81524;DHT22;70954;49.500;10.416;2024-02-26T07:25:53;8.00;60.00
81524;DHT22;70954;49.500;10.416;2024-02-26T07:28:19;8.00;59.90
81524;DHT22;70954;49.500;10.416;2024-02-26T07:30:44;8.10;59.80
81524;DHT22;70954;49.500;10.416;2024-02-26T07:33:10;8.10;59.80
81524;DHT22;70954;49.500;10.416;2024-02-26T07:35:35;8.10;59.80
81524;DHT22;70954;49.500;10.416;2024-02-26T07:38:00;8.20;59.80
81524;DHT22;70954;49.500;10.416;2024-02-26T07:40:26;8.20;59.70
81524;DHT22;70954;49.500;10.416;2024-02-26T07:42:51;8.20;59.50
81524;DHT22;70954;49.500;10.416;2024-02-26T07:45:17;8.20;59.60
81524;DHT22;70954;49.500;10.416;2024-02-26T07:47:42;8.30;59.60
81524;DHT22;70954;49.500;10.416;2024-02-26T07:50:08;8.30;59.60
81524;DHT22;70954;49.500;10.416;2024-02-26T07:52:33;8.30;59.60
81524;DHT22;70954;49.500;10.416;2024-02-26T07:54:59;8.40;59.50
81524;DHT22;70954;49.500;10.416;2024-02-26T07:57:24;8.40;59.60
81524;DHT22;70954;49.500;10.416;2024-02-26T07:59:50;8.40;59.60
81524;DHT22;70954;49.500;10.416;2024-02-26T08:02:16;8.50;59.50
81524;DHT22;70954;49.500;10.416;2024-02-26T08:04:41;8.50;59.60
81524;DHT22;70954;49.500;10.416;2024-02-26T08:07:07;8.60;59.70
81524;DHT22;70954;49.500;10.416;2024-02-26T08:09:32;8.60;59.80
81524;DHT22;70954;49.500;10.416;2024-02-26T08:11:58;8.60;59.80
81524;DHT22;70954;49.500;10.416;2024-02-26T08:14:23;8.60;59.90
81524;DHT22;70954;49.500;10.416;2024-02-26T08:16:48;8.70;59.80
81524;DHT22;70954;49.500;10.416;2024-02-26T08:19:14;8.80;59.70
81524;DHT22;70954;49.500;10.416;2024-02-26T08:21:39;8.90;59.70
81524;DHT22;70954;49.500;10.416;2024-02-26T08:24:05;8.90;59.50
81524;DHT22;70954;49.500;10.416;2024-02-26T08:26:31;9.00;59.40
81524;DHT22;70954;49.500;10.416;2024-02-26T08:28:56;9.00;59.20
81524;DHT22;70954;49.500;10.416;2024-02-26T08:31:21;9.00;59.10
81524;DHT22;70954;49.500;10.416;2024-02-26T08:33:47;9.10;59.00
81524;DHT22;70954;49.500;10.416;2024-02-26T08:36:12;9.10;59.00
81524;DHT22;70954;49.500;10.416;2024-02-26T08:38:38;9.10;59.00
81524;DHT22;70954;49.500;10.416;2024-02-26T08:41:04;9.20;59.10
81524;DHT22;70954;49.500;10.416;2024-02-26T08:43:29;9.20;59.10
81524;DHT22;70954;49.500;10.416;2024-02-26T08:45:56;9.30;59.00
81524;DHT22;70954;49.500;10.416;2024-02-26T08:48:21;9.40;58.90
81524;DHT22;70954;49.500;10.416;2024-02-26T08:50:46;9.40;58.80
81524;DHT22;70954;49.500;10.416;2024-02-26T08:53:12;9.40;58.80
81524;DHT22;70954;49.500;10.416;2024-02-26T08:55:37;9.50;58.70
81524;DHT22;70954;49.500;10.416;2024-02-26T08:58:03;9.50;58.50
81524;DHT22;70954;49.500;10.416;2024-02-26T09:00:28;9.60;58.00
81524;DHT22;70954;49.500;10.416;2024-02-26T09:02:54;9.60;57.80
81524;DHT22;70954;49.500;10.416;2024-02-26T09:05:19;9.60;57.60
81524;DHT22;70954;49.500;10.416;2024-02-26T09:07:45;9.60;57.60
81524;DHT22;70954;49.500;10.416;2024-02-26T09:10:10;9.60;57.70
81524;DHT22;70954;49.500;10.416;2024-02-26T09:12:36;9.60;57.80
81524;DHT22;70954;49.500;10.416;2024-02-26T09:15:02;9.60;57.80
81524;DHT22;70954;49.500;10.416;2024-02-26T09:17:40;9.50;58.00
81524;DHT22;70954;49.500;10.416;2024-02-26T09:20:06;9.60;58.30
81524;DHT22;70954;49.500;10.416;2024-02-26T09:22:31;9.60;58.40
81524;DHT22;70954;49.500;10.416;2024-02-26T09:24:57;9.60;58.60
81524;DHT22;70954;49.500;10.416;2024-02-26T09:27:22;9.60;58.60
81524;DHT22;70954;49.500;10.416;2024-02-26T09:29:48;9.70;58.60
81524;DHT22;70954;49.500;10.416;2024-02-26T09:32:13;9.70;58.60
81524;DHT22;70954;49.500;10.416;2024-02-26T09:34:40;9.70;58.60
81524;DHT22;70954;49.500;10.416;2024-02-26T09:37:06;9.80;58.60
81524;DHT22;70954;49.500;10.416;2024-02-26T09:39:31;9.80;58.70
81524;DHT22;70954;49.500;10.416;2024-02-26T09:41:57;9.90;58.70
81524;DHT22;70954;49.500;10.416;2024-02-26T09:44:23;10.00;58.80
81524;DHT22;70954;49.500;10.416;2024-02-26T09:46:49;10.00;58.90
81524;DHT22;70954;49.500;10.416;2024-02-26T09:49:15;10.10;59.00
81524;DHT22;70954;49.500;10.416;2024-02-26T09:51:41;10.20;58.90
81524;DHT22;70954;49.500;10.416;2024-02-26T09:54:10;10.30;58.90
81524;DHT22;70954;49.500;10.416;2024-02-26T09:56:39;10.40;58.90
81524;DHT22;70954;49.500;10.416;2024-02-26T09:59:06;10.40;58.80
81524;DHT22;70954;49.500;10.416;2024-02-26T10:01:34;10.50;58.60
81524;DHT22;70954;49.500;10.416;2024-02-26T10:04:00;10.60;58.60
81524;DHT22;70954;49.500;10.416;2024-02-26T10:06:26;10.70;58.50
81524;DHT22;70954;49.500;10.416;2024-02-26T10:08:53;10.80;58.40
81524;DHT22;70954;49.500;10.416;2024-02-26T10:11:18;10.90;58.10
81524;DHT22;70954;49.500;10.416;2024-02-26T10:13:44;11.00;58.00
81524;DHT22;70954;49.500;10.416;2024-02-26T10:16:09;11.10;57.90
81524;DHT22;70954;49.500;10.416;2024-02-26T10:18:51;11.10;57.60
81524;DHT22;70954;49.500;10.416;2024-02-26T10:21:18;11.30;57.20
81524;DHT22;70954;49.500;10.416;2024-02-26T10:23:44;11.30;57.30
81524;DHT22;70954;49.500;10.416;2024-02-26T10:26:10;11.40;57.20
81524;DHT22;70954;49.500;10.416;2024-02-26T10:28:36;11.50;57.00
81524;DHT22;70954;49.500;10.416;2024-02-26T10:31:02;11.50;56.80
81524;DHT22;70954;49.500;10.416;2024-02-26T10:33:28;11.50;56.80
81524;DHT22;70954;49.500;10.416;2024-02-26T10:35:54;11.60;56.60
81524;DHT22;70954;49.500;10.416;2024-02-26T10:38:19;11.70;56.60
81524;DHT22;70954;49.500;10.416;2024-02-26T10:40:45;11.70;56.20
81524;DHT22;70954;49.500;10.416;2024-02-26T10:43:10;11.80;56.00
81524;DHT22;70954;49.500;10.416;2024-02-26T10:45:35;11.90;56.00
81524;DHT22;70954;49.500;10.416;2024-02-26T10:48:01;11.90;55.90
81524;DHT22;70954;49.500;10.416;2024-02-26T10:50:26;11.90;55.80
81524;DHT22;70954;49.500;10.416;2024-02-26T10:52:52;12.00;55.50
81524;DHT22;70954;49.500;10.416;2024-02-26T10:55:21;12.00;55.60
81524;DHT22;70954;49.500;10.416;2024-02-26T10:57:48;12.10;55.60
81524;DHT22;70954;49.500;10.416;2024-02-26T11:00:17;12.10;55.70
81524;DHT22;70954;49.500;10.416;2024-02-26T11:02:45;12.20;55.60
81524;DHT22;70954;49.500;10.416;2024-02-26T11:05:11;12.20;55.50
81524;DHT22;70954;49.500;10.416;2024-02-26T11:07:37;12.30;55.60
81524;DHT22;70954;49.500;10.416;2024-02-26T11:10:04;12.40;55.50
81524;DHT22;70954;49.500;10.416;2024-02-26T11:12:31;12.50;55.20
81524;DHT22;70954;49.500;10.416;2024-02-26T11:14:58;12.50;55.00
81524;DHT22;70954;49.500;10.416;2024-02-26T11:17:25;12.50;54.90
81524;DHT22;70954;49.500;10.416;2024-02-26T11:19:52;12.60;54.70
81524;DHT22;70954;49.500;10.416;2024-02-26T11:22:18;12.70;54.60
81524;DHT22;70954;49.500;10.416;2024-02-26T11:24:43;12.70;54.50
81524;DHT22;70954;49.500;10.416;2024-02-26T11:27:10;12.80;54.50
81524;DHT22;70954;49.500;10.416;2024-02-26T11:29:50;12.80;54.50
81524;DHT22;70954;49.500;10.416;2024-02-26T11:32:16;12.90;54.20
81524;DHT22;70954;49.500;10.416;2024-02-26T11:34:42;12.90;54.40
81524;DHT22;70954;49.500;10.416;2024-02-26T11:37:12;12.90;54.40
81524;DHT22;70954;49.500;10.416;2024-02-26T11:39:40;13.00;53.90
81524;DHT22;70954;49.500;10.416;2024-02-26T11:42:09;13.00;53.90
81524;DHT22;70954;49.500;10.416;2024-02-26T11:44:35;13.10;54.00
81524;DHT22;70954;49.500;10.416;2024-02-26T11:47:12;13.10;53.90
81524;DHT22;70954;49.500;10.416;2024-02-26T11:49:38;13.10;53.70
81524;DHT22;70954;49.500;10.416;2024-02-26T11:52:09;13.10;54.00
81524;DHT22;70954;49.500;10.416;2024-02-26T11:54:39;13.20;53.90
81524;DHT22;70954;49.500;10.416;2024-02-26T11:57:04;13.30;53.90
81524;DHT22;70954;49.500;10.416;2024-02-26T11:59:44;13.30;54.00
81524;DHT22;70954;49.500;10.416;2024-02-26T12:02:10;13.40;53.70
81524;DHT22;70954;49.500;10.416;2024-02-26T12:04:36;13.50;53.70
81524;DHT22;70954;49.500;10.416;2024-02-26T12:07:03;13.50;53.60
81524;DHT22;70954;49.500;10.416;2024-02-26T12:09:38;13.50;53.50
81524;DHT22;70954;49.500;10.416;2024-02-26T12:12:05;13.60;53.40
81524;DHT22;70954;49.500;10.416;2024-02-26T12:14:34;13.60;53.30
81524;DHT22;70954;49.500;10.416;2024-02-26T12:16:59;13.70;53.20
81524;DHT22;70954;49.500;10.416;2024-02-26T12:19:25;13.70;53.10
81524;DHT22;70954;49.500;10.416;2024-02-26T12:21:53;13.80;53.00
81524;DHT22;70954;49.500;10.416;2024-02-26T12:24:18;13.90;52.90
81524;DHT22;70954;49.500;10.416;2024-02-26T12:26:44;13.90;52.80
81524;DHT22;70954;49.500;10.416;2024-02-26T12:29:09;13.90;52.50
81524;DHT22;70954;49.500;10.416;2024-02-26T12:31:35;13.90;52.50
81524;DHT22;70954;49.500;10.416;2024-02-26T12:34:01;14.00;52.10
81524;DHT22;70954;49.500;10.416;2024-02-26T12:36:27;14.00;52.10
81524;DHT22;70954;49.500;10.416;2024-02-26T12:38:52;14.00;52.20
81524;DHT22;70954;49.500;10.416;2024-02-26T12:41:18;14.10;52.20
81524;DHT22;70954;49.500;10.416;2024-02-26T12:43:43;14.10;52.00
81524;DHT22;70954;49.500;10.416;2024-02-26T12:46:10;14.10;51.90
81524;DHT22;70954;49.500;10.416;2024-02-26T12:48:35;14.20;51.90
81524;DHT22;70954;49.500;10.416;2024-02-26T12:51:01;14.20;51.50
81524;DHT22;70954;49.500;10.416;2024-02-26T12:53:27;14.30;51.40
81524;DHT22;70954;49.500;10.416;2024-02-26T12:55:55;14.30;51.20
81524;DHT22;70954;49.500;10.416;2024-02-26T12:58:21;14.30;51.00
81524;DHT22;70954;49.500;10.416;2024-02-26T13:00:47;14.30;51.10
81524;DHT22;70954;49.500;10.416;2024-02-26T13:03:13;14.40;51.00
81524;DHT22;70954;49.500;10.416;2024-02-26T13:05:39;14.40;50.90
81524;DHT22;70954;49.500;10.416;2024-02-26T13:08:05;14.40;50.90
81524;DHT22;70954;49.500;10.416;2024-02-26T13:10:31;14.40;50.60
81524;DHT22;70954;49.500;10.416;2024-02-26T13:12:57;14.40;50.70
81524;DHT22;70954;49.500;10.416;2024-02-26T13:15:22;14.50;50.70
81524;DHT22;70954;49.500;10.416;2024-02-26T13:17:49;14.50;50.50
81524;DHT22;70954;49.500;10.416;2024-02-26T13:20:26;14.50;50.40
81524;DHT22;70954;49.500;10.416;2024-02-26T13:23:00;14.50;50.20
81524;DHT22;70954;49.500;10.416;2024-02-26T13:25:25;14.50;50.30
81524;DHT22;70954;49.500;10.416;2024-02-26T13:27:51;14.50;50.50
81524;DHT22;70954;49.500;10.416;2024-02-26T13:30:16;14.50;50.40
81524;DHT22;70954;49.500;10.416;2024-02-26T13:32:42;14.60;50.40
81524;DHT22;70954;49.500;10.416;2024-02-26T13:35:11;14.60;50.30
81524;DHT22;70954;49.500;10.416;2024-02-26T13:37:38;14.50;50.20
81524;DHT22;70954;49.500;10.416;2024-02-26T13:40:10;14.50;50.30
81524;DHT22;70954;49.500;10.416;2024-02-26T13:42:39;14.60;50.00
81524;DHT22;70954;49.500;10.416;2024-02-26T13:45:05;14.60;50.20
81524;DHT22;70954;49.500;10.416;2024-02-26T13:47:31;14.60;50.30
81524;DHT22;70954;49.500;10.416;2024-02-26T13:49:56;14.60;50.10
81524;DHT22;70954;49.500;10.416;2024-02-26T13:52:22;14.60;49.80
81524;DHT22;70954;49.500;10.416;2024-02-26T13:54:47;14.60;49.70
81524;DHT22;70954;49.500;10.416;2024-02-26T13:57:13;14.60;49.70
81524;DHT22;70954;49.500;10.416;2024-02-26T13:59:39;14.60;49.80
81524;DHT22;70954;49.500;10.416;2024-02-26T14:02:04;14.60;49.60
81524;DHT22;70954;49.500;10.416;2024-02-26T14:04:30;14.60;49.70
81524;DHT22;70954;49.500;10.416;2024-02-26T14:06:55;14.60;49.60
81524;DHT22;70954;49.500;10.416;2024-02-26T14:09:21;14.60;49.40
81524;DHT22;70954;49.500;10.416;2024-02-26T14:11:46;14.60;49.50
81524;DHT22;70954;49.500;10.416;2024-02-26T14:14:12;14.60;49.40
81524;DHT22;70954;49.500;10.416;2024-02-26T14:16:37;14.60;49.40
81524;DHT22;70954;49.500;10.416;2024-02-26T14:19:03;14.60;49.30
81524;DHT22;70954;49.500;10.416;2024-02-26T14:21:29;14.60;49.30
81524;DHT22;70954;49.500;10.416;2024-02-26T14:23:54;14.50;49.10
81524;DHT22;70954;49.500;10.416;2024-02-26T14:26:19;14.50;49.00
81524;DHT22;70954;49.500;10.416;2024-02-26T14:28:45;14.50;49.30
81524;DHT22;70954;49.500;10.416;2024-02-26T14:31:10;14.50;49.30
81524;DHT22;70954;49.500;10.416;2024-02-26T14:33:39;14.40;49.20
81524;DHT22;70954;49.500;10.416;2024-02-26T14:36:05;14.50;49.10
81524;DHT22;70954;49.500;10.416;2024-02-26T14:38:31;14.40;49.20
81524;DHT22;70954;49.500;10.416;2024-02-26T14:40:56;14.40;49.20
81524;DHT22;70954;49.500;10.416;2024-02-26T14:43:22;14.40;49.10
81524;DHT22;70954;49.500;10.416;2024-02-26T14:48:16;14.30;48.90
81524;DHT22;70954;49.500;10.416;2024-02-26T14:50:42;14.30;49.00
81524;DHT22;70954;49.500;10.416;2024-02-26T14:53:07;14.30;48.70
81524;DHT22;70954;49.500;10.416;2024-02-26T14:55:32;14.30;48.80
81524;DHT22;70954;49.500;10.416;2024-02-26T14:57:58;14.20;48.50
81524;DHT22;70954;49.500;10.416;2024-02-26T15:00:23;14.20;48.60
81524;DHT22;70954;49.500;10.416;2024-02-26T15:02:49;14.20;48.60
81524;DHT22;70954;49.500;10.416;2024-02-26T15:05:14;14.10;48.60
81524;DHT22;70954;49.500;10.416;2024-02-26T15:07:40;14.10;48.70
81524;DHT22;70954;49.500;10.416;2024-02-26T15:10:06;14.10;48.80
81524;DHT22;70954;49.500;10.416;2024-02-26T15:12:32;14.10;48.70
81524;DHT22;70954;49.500;10.416;2024-02-26T15:14:58;14.10;48.70
81524;DHT22;70954;49.500;10.416;2024-02-26T15:17:24;14.00;48.80
81524;DHT22;70954;49.500;10.416;2024-02-26T15:19:49;14.00;48.80